createdAt,value
2023-05-08T00:01:20.282Z,14.95
2023-05-08T00:03:46.971Z,14.78
2023-05-08T00:06:13.550Z,14.71
2023-05-08T00:08:40.383Z,14.69
2023-05-08T00:11:06.879Z,14.60
2023-05-08T00:13:33.433Z,14.68
2023-05-08T00:15:59.977Z,14.49
2023-05-08T00:18:26.621Z,14.80
2023-05-08T00:20:53.257Z,14.78
2023-05-08T00:23:22.015Z,15.08
2023-05-08T00:25:48.492Z,15.11
2023-05-08T00:28:14.979Z,15.16
2023-05-08T00:30:42.504Z,15.28
2023-05-08T00:33:09.487Z,15.24
2023-05-08T00:35:36.041Z,14.99
2023-05-08T00:38:03.213Z,14.83
2023-05-08T00:40:29.960Z,14.87
2023-05-08T00:42:56.389Z,14.55
2023-05-08T00:45:22.939Z,14.08
2023-05-08T00:47:49.905Z,14.29
2023-05-08T00:50:16.951Z,14.44
2023-05-08T00:52:43.489Z,14.21
2023-05-08T00:55:09.979Z,14.05
2023-05-08T00:57:36.826Z,14.33
2023-05-08T01:00:10.290Z,14.33
2023-05-08T01:02:37.174Z,14.60
2023-05-08T01:05:03.880Z,14.35
2023-05-08T01:07:30.384Z,14.42
2023-05-08T01:09:56.912Z,14.30
2023-05-08T01:12:43.770Z,14.31
2023-05-08T01:15:19.524Z,14.28
2023-05-08T01:17:46.050Z,14.34
2023-05-08T01:20:18.075Z,14.26
2023-05-08T01:23:00.827Z,14.21
2023-05-08T01:25:36.468Z,14.23
2023-05-08T01:28:09.144Z,14.35
2023-05-08T01:30:39.075Z,14.09
2023-05-08T01:33:14.132Z,13.93
2023-05-08T01:35:47.624Z,13.90
2023-05-08T01:38:14.056Z,13.75
2023-05-08T01:40:46.962Z,13.74
2023-05-08T01:43:22.679Z,13.89
2023-05-08T01:45:51.393Z,13.97
2023-05-08T01:48:20.481Z,13.56
2023-05-08T01:50:48.466Z,13.43
2023-05-08T01:53:34.405Z,13.49
2023-05-08T01:56:03.684Z,12.90
2023-05-08T01:58:30.659Z,13.12
2023-05-08T02:00:58.947Z,13.20
2023-05-08T02:03:25.931Z,13.39
2023-05-08T02:05:54.304Z,13.16
2023-05-08T02:08:21.295Z,13.13
2023-05-08T02:10:49.805Z,13.22
2023-05-08T02:13:19.278Z,12.67
2023-05-08T02:15:48.167Z,12.50
2023-05-08T02:18:15.752Z,12.33
2023-05-08T02:20:42.237Z,12.47
2023-05-08T02:23:09.309Z,12.22
2023-05-08T02:25:36.436Z,12.02
2023-05-08T02:28:03.432Z,11.96
2023-05-08T02:30:30.638Z,11.80
2023-05-08T02:33:00.639Z,12.14
2023-05-08T02:35:28.401Z,11.89
2023-05-08T02:37:55.613Z,11.67
2023-05-08T02:40:22.686Z,11.43
2023-05-08T02:42:49.696Z,11.29
2023-05-08T02:45:16.693Z,11.42
2023-05-08T02:47:52.892Z,11.74
2023-05-08T02:50:48.950Z,11.54
2023-05-08T02:53:18.470Z,11.53
2023-05-08T02:55:53.791Z,11.63
2023-05-08T02:58:32.354Z,11.89
2023-05-08T03:01:31.512Z,11.90
2023-05-08T03:04:21.191Z,11.82
2023-05-08T03:06:48.067Z,11.89
2023-05-08T03:09:26.778Z,11.84
2023-05-08T03:11:57.979Z,11.78
2023-05-08T03:14:28.406Z,11.89
2023-05-08T03:16:55.861Z,11.69
2023-05-08T03:19:26.755Z,11.83
2023-05-08T03:21:54.860Z,12.01
2023-05-08T03:24:22.720Z,11.93
2023-05-08T03:26:49.290Z,11.95
2023-05-08T03:29:16.945Z,12.10
2023-05-08T03:31:44.599Z,12.25
2023-05-08T03:34:12.593Z,11.78
2023-05-08T03:36:39.442Z,11.69
2023-05-08T03:39:06.125Z,11.75
2023-05-08T03:41:32.652Z,11.65
2023-05-08T03:43:59.524Z,11.64
2023-05-08T03:46:26.244Z,11.92
2023-05-08T03:48:53.205Z,11.95
2023-05-08T03:51:21.771Z,12.00
2023-05-08T03:53:49.327Z,11.78
2023-05-08T03:56:16.073Z,11.80
2023-05-08T03:58:42.618Z,11.83
2023-05-08T04:01:18.608Z,11.73
2023-05-08T04:03:57.600Z,11.74
2023-05-08T04:06:30.753Z,11.81
2023-05-08T04:09:04.113Z,11.80
2023-05-08T04:11:31.666Z,11.76
2023-05-08T04:14:01.902Z,11.77
2023-05-08T04:16:30.901Z,11.70
2023-05-08T04:19:02.229Z,11.66
2023-05-08T04:21:31.445Z,11.73
2023-05-08T04:23:58.847Z,11.56
2023-05-08T04:26:28.244Z,11.54
2023-05-08T04:28:57.080Z,11.57
2023-05-08T04:31:24.529Z,11.63
2023-05-08T04:33:51.594Z,11.58
2023-05-08T04:36:18.091Z,11.82
2023-05-08T04:38:45.372Z,11.58
2023-05-08T04:41:13.043Z,11.63
2023-05-08T04:43:40.293Z,11.61
2023-05-08T04:46:07.803Z,11.60
2023-05-08T04:48:34.344Z,11.59
2023-05-08T04:51:01.191Z,11.46
2023-05-08T04:53:28.091Z,11.76
2023-05-08T04:55:54.619Z,11.54
2023-05-08T04:58:21.287Z,11.61
2023-05-08T05:00:48.867Z,11.09
2023-05-08T05:03:15.546Z,10.91
2023-05-08T05:05:42.805Z,10.93
2023-05-08T05:08:09.485Z,11.05
2023-05-08T05:10:37.823Z,11.13
2023-05-08T05:13:04.713Z,11.22
2023-05-08T05:15:32.106Z,11.66
2023-05-08T05:17:59.034Z,11.66
2023-05-08T05:20:25.940Z,11.71
2023-05-08T05:22:53.099Z,11.76
2023-05-08T05:25:19.652Z,11.90
2023-05-08T05:27:46.191Z,11.93
2023-05-08T05:30:13.149Z,11.72
2023-05-08T05:32:39.879Z,11.80
2023-05-08T05:35:07.303Z,11.63
2023-05-08T05:37:33.820Z,11.63
2023-05-08T05:40:00.591Z,11.78
2023-05-08T05:42:27.155Z,11.77
2023-05-08T05:44:56.708Z,11.73
2023-05-08T05:47:23.638Z,11.57
2023-05-08T05:49:50.394Z,11.70
2023-05-08T05:52:16.924Z,11.72
2023-05-08T05:54:43.488Z,11.65
2023-05-08T05:57:10.069Z,11.65
2023-05-08T05:59:36.761Z,11.68
2023-05-08T06:02:03.641Z,11.76
2023-05-08T06:04:30.508Z,11.92
2023-05-08T06:06:57.106Z,11.65
2023-05-08T06:09:23.692Z,11.45
2023-05-08T06:11:51.499Z,11.32
2023-05-08T06:14:18.192Z,11.50
2023-05-08T06:16:45.111Z,11.62
2023-05-08T06:19:12.007Z,11.58
2023-05-08T06:21:39.845Z,11.46
2023-05-08T06:24:07.790Z,11.62
2023-05-08T06:26:34.242Z,11.47
2023-05-08T06:29:01.376Z,11.75
2023-05-08T06:31:28.266Z,11.55
2023-05-08T06:33:54.988Z,11.57
2023-05-08T06:36:21.464Z,11.55
2023-05-08T06:38:47.936Z,11.69
2023-05-08T06:41:15.469Z,11.72
2023-05-08T06:43:42.120Z,11.70
2023-05-08T06:46:08.693Z,11.78
2023-05-08T06:48:35.201Z,11.60
2023-05-08T06:51:02.700Z,11.61
2023-05-08T06:53:29.175Z,12.05
2023-05-08T06:55:57.802Z,11.86
2023-05-08T06:58:24.462Z,11.50
2023-05-08T07:00:51.003Z,11.24
2023-05-08T07:03:17.448Z,11.58
2023-05-08T07:05:43.864Z,12.00
2023-05-08T07:08:10.447Z,11.60
2023-05-08T07:10:36.877Z,11.41
2023-05-08T07:13:03.386Z,11.41
2023-05-08T07:15:31.931Z,11.72
2023-05-08T07:17:58.679Z,12.08
2023-05-08T07:20:25.265Z,12.31
2023-05-08T07:22:51.787Z,12.16
2023-05-08T07:25:18.332Z,12.10
2023-05-08T07:27:44.837Z,11.79
2023-05-08T07:30:11.482Z,12.23
2023-05-08T07:32:39.224Z,12.31
2023-05-08T07:35:10.302Z,12.58
2023-05-08T07:37:37.617Z,12.63
2023-05-08T07:40:04.238Z,12.51
2023-05-08T07:42:30.698Z,12.26
2023-05-08T07:44:57.298Z,11.68
2023-05-08T07:47:23.918Z,11.89
2023-05-08T07:49:50.563Z,11.54
2023-05-08T07:52:17.065Z,11.60
2023-05-08T07:54:43.851Z,12.22
2023-05-08T07:57:11.180Z,12.07
2023-05-08T07:59:37.813Z,11.97
2023-05-08T08:02:04.335Z,11.90
2023-05-08T08:04:30.898Z,12.07
2023-05-08T08:06:59.349Z,12.10
2023-05-08T08:09:25.861Z,11.87
2023-05-08T08:11:52.349Z,12.43
2023-05-08T08:14:19.016Z,12.33
2023-05-08T08:16:45.537Z,12.25
2023-05-08T08:19:12.130Z,13.00
2023-05-08T08:21:42.431Z,12.93
2023-05-08T08:24:08.945Z,12.43
2023-05-08T08:26:35.450Z,12.74
2023-05-08T08:29:02.174Z,12.61
2023-05-08T08:31:28.673Z,12.76
2023-05-08T08:33:55.195Z,12.63
2023-05-08T08:36:21.661Z,12.27
2023-05-08T08:38:48.210Z,12.38
2023-05-08T08:41:15.676Z,12.48
2023-05-08T08:43:45.209Z,12.51
2023-05-08T08:46:14.717Z,12.28
2023-05-08T08:48:45.202Z,12.11
2023-05-08T08:51:18.921Z,12.21
2023-05-08T08:53:49.211Z,12.34
2023-05-08T08:56:16.468Z,11.94
2023-05-08T08:58:50.983Z,11.84
2023-05-08T09:01:18.297Z,12.63
2023-05-08T09:03:46.787Z,12.09
2023-05-08T09:06:15.040Z,12.09
2023-05-08T09:08:42.008Z,12.13
2023-05-08T09:11:08.496Z,12.17
2023-05-08T09:13:35.178Z,12.07
2023-05-08T09:16:01.845Z,12.00
2023-05-08T09:18:28.316Z,12.89
2023-05-08T09:20:55.043Z,12.27
2023-05-08T09:23:21.580Z,12.03
2023-05-08T09:25:48.696Z,12.29
2023-05-08T09:28:18.243Z,12.09
2023-05-08T09:30:57.958Z,12.07
2023-05-08T09:33:25.512Z,12.11
2023-05-08T09:35:52.180Z,11.95
2023-05-08T09:38:37.064Z,12.51
2023-05-08T09:41:15.265Z,12.01
2023-05-08T09:43:45.409Z,11.83
2023-05-08T09:46:22.420Z,11.94
2023-05-08T09:48:49.412Z,12.73
2023-05-08T09:51:16.172Z,12.80
2023-05-08T09:53:42.644Z,12.47
2023-05-08T09:56:09.718Z,12.69
2023-05-08T09:58:40.564Z,13.11
2023-05-08T10:01:27.341Z,12.79
2023-05-08T10:03:53.904Z,12.28
2023-05-08T10:06:20.384Z,12.42
2023-05-08T10:08:48.275Z,12.19
2023-05-08T10:11:18.217Z,12.41
2023-05-08T10:13:45.198Z,12.87
2023-05-08T10:16:14.416Z,12.44
2023-05-08T10:18:42.372Z,12.50
2023-05-08T10:21:09.056Z,13.30
2023-05-08T10:23:37.769Z,12.66
2023-05-08T10:26:08.880Z,12.43
2023-05-08T10:28:49.988Z,13.05
2023-05-08T10:31:17.892Z,12.44
2023-05-08T10:33:45.585Z,12.13
2023-05-08T10:36:13.377Z,11.96
2023-05-08T10:38:41.439Z,12.24
2023-05-08T10:41:08.209Z,11.97
2023-05-08T10:43:36.080Z,11.96
2023-05-08T10:46:07.621Z,12.13
2023-05-08T10:48:39.458Z,11.98
2023-05-08T10:51:10.123Z,11.79
2023-05-08T10:53:46.157Z,12.09
2023-05-08T10:56:12.693Z,11.98
2023-05-08T10:58:40.203Z,12.20
2023-05-08T11:01:09.609Z,12.35
2023-05-08T11:03:41.607Z,12.48
2023-05-08T11:06:08.327Z,12.72
2023-05-08T11:08:43.059Z,12.49
2023-05-08T11:11:29.474Z,12.04
2023-05-08T11:13:59.636Z,12.34
2023-05-08T11:16:44.928Z,12.37
2023-05-08T11:19:22.060Z,12.33
2023-05-08T11:22:07.672Z,12.26
2023-05-08T11:24:37.956Z,12.49
2023-05-08T11:27:04.675Z,12.48
2023-05-08T11:29:31.200Z,12.62
2023-05-08T11:31:58.073Z,12.66
2023-05-08T11:34:49.170Z,12.42
2023-05-08T11:37:23.923Z,12.42
2023-05-08T11:39:50.791Z,12.85
2023-05-08T11:42:29.430Z,12.70
2023-05-08T11:45:02.007Z,12.41
2023-05-08T11:47:32.283Z,12.50
2023-05-08T11:49:59.340Z,12.29
2023-05-08T11:52:26.382Z,12.40
2023-05-08T11:54:53.038Z,12.42
2023-05-08T11:57:19.814Z,12.62
2023-05-08T11:59:49.731Z,13.13
2023-05-08T12:02:16.337Z,13.20
2023-05-08T12:04:46.686Z,13.57
2023-05-08T12:07:13.650Z,13.18
2023-05-08T12:09:40.174Z,13.24
2023-05-08T12:12:07.216Z,13.30
2023-05-08T12:14:34.574Z,13.72
2023-05-08T12:17:02.298Z,13.96
2023-05-08T12:19:28.810Z,13.93
2023-05-08T12:21:56.979Z,13.95
2023-05-08T12:24:26.069Z,13.82
2023-05-08T12:26:58.547Z,13.81
2023-05-08T12:29:27.394Z,13.87
2023-05-08T12:31:54.193Z,14.02
2023-05-08T12:34:21.054Z,14.05
2023-05-08T12:36:47.807Z,14.27
2023-05-08T12:39:18.205Z,14.74
2023-05-08T12:41:51.898Z,14.91
2023-05-08T12:44:19.116Z,15.50
2023-05-08T12:46:56.303Z,15.70
2023-05-08T12:49:26.689Z,15.87
2023-05-08T12:52:00.229Z,15.77
2023-05-08T12:54:33.727Z,15.97
2023-05-08T12:57:00.630Z,17.06
2023-05-08T12:59:33.644Z,17.20
2023-05-08T13:02:00.305Z,17.67
2023-05-08T13:04:27.036Z,17.11
2023-05-08T13:06:54.724Z,17.25
2023-05-08T13:09:21.804Z,17.25
2023-05-08T13:11:48.251Z,16.69
2023-05-08T13:14:14.912Z,16.38
2023-05-08T13:16:42.094Z,16.83
2023-05-08T13:19:08.522Z,16.68
2023-05-08T13:21:34.981Z,16.44
2023-05-08T13:24:01.450Z,16.76
2023-05-08T13:26:27.905Z,16.72
2023-05-08T13:28:56.492Z,16.99
2023-05-08T13:31:23.348Z,17.36
2023-05-08T13:33:49.861Z,17.70
2023-05-08T13:36:16.344Z,17.47
2023-05-08T13:38:42.775Z,16.37
2023-05-08T13:41:09.268Z,16.30
2023-05-08T13:43:36.891Z,16.12
2023-05-08T13:46:04.826Z,16.68
2023-05-08T13:48:33.241Z,16.34
2023-05-08T13:50:59.753Z,15.99
2023-05-08T13:53:26.183Z,15.77
2023-05-08T13:55:52.728Z,15.91
2023-05-08T13:58:19.229Z,15.67
2023-05-08T14:00:45.723Z,15.63
2023-05-08T14:03:12.270Z,15.67
2023-05-08T14:05:38.843Z,15.29
2023-05-08T14:08:05.419Z,15.24
2023-05-08T14:10:31.894Z,15.35
2023-05-08T14:12:58.435Z,15.80
2023-05-08T14:15:29.178Z,15.34
2023-05-08T14:18:02.881Z,15.44
2023-05-08T14:20:29.363Z,15.51
2023-05-08T14:22:59.604Z,15.16
2023-05-08T14:25:26.671Z,15.30
2023-05-08T14:27:53.156Z,15.28
2023-05-08T14:30:19.640Z,15.09
2023-05-08T14:32:46.431Z,15.47
2023-05-08T14:35:14.119Z,15.63
2023-05-08T14:37:41.055Z,14.96
2023-05-08T14:40:07.830Z,14.90
2023-05-08T14:42:34.550Z,15.15
2023-05-08T14:45:01.185Z,14.78
2023-05-08T14:47:27.820Z,14.88
2023-05-08T14:49:54.332Z,14.61
2023-05-08T14:52:20.916Z,14.41
2023-05-08T14:54:53.068Z,14.89
2023-05-08T14:57:20.584Z,14.99
2023-05-08T14:59:54.884Z,14.62
2023-05-08T15:02:22.264Z,14.65
2023-05-08T15:04:49.052Z,14.48
2023-05-08T15:07:15.476Z,14.38
2023-05-08T15:09:42.032Z,14.44
2023-05-08T15:12:08.594Z,14.66
2023-05-08T15:14:35.363Z,14.62
2023-05-08T15:17:01.890Z,14.78
2023-05-08T15:19:28.336Z,14.92
2023-05-08T15:21:54.762Z,14.79
2023-05-08T15:24:21.210Z,14.92
2023-05-08T15:26:47.695Z,14.74
2023-05-08T15:29:14.225Z,14.86
2023-05-08T15:31:40.771Z,14.85
2023-05-08T15:34:07.292Z,14.79
2023-05-08T15:36:35.198Z,15.11
2023-05-08T15:39:01.716Z,14.62
2023-05-08T15:41:28.176Z,14.78
2023-05-08T15:43:54.659Z,15.11
2023-05-08T15:46:21.219Z,14.83
2023-05-08T15:48:48.187Z,14.94
2023-05-08T15:51:14.877Z,15.05
2023-05-08T15:53:41.434Z,14.97
2023-05-08T15:56:07.966Z,15.05
2023-05-08T15:58:36.625Z,15.13
2023-05-08T16:01:04.784Z,14.91
2023-05-08T16:03:31.621Z,14.95
2023-05-08T16:05:58.223Z,14.75
2023-05-08T16:08:24.685Z,14.84
2023-05-08T16:10:54.095Z,15.17
2023-05-08T16:13:20.713Z,14.98
2023-05-08T16:15:47.364Z,14.82
2023-05-08T16:18:14.031Z,15.07
2023-05-08T16:20:41.667Z,14.70
2023-05-08T16:23:08.200Z,14.74
2023-05-08T16:25:34.812Z,14.88
2023-05-08T16:28:01.315Z,14.80
2023-05-08T16:30:27.818Z,14.96
2023-05-08T16:32:54.345Z,15.13
2023-05-08T16:35:20.881Z,15.15
2023-05-08T16:37:47.472Z,15.07
2023-05-08T16:40:14.024Z,14.96
2023-05-08T16:42:40.546Z,14.94
2023-05-08T16:45:08.148Z,14.82
2023-05-08T16:47:35.046Z,14.79
2023-05-08T16:50:01.555Z,15.04
2023-05-08T16:52:28.027Z,14.76
2023-05-08T16:54:54.799Z,14.50
2023-05-08T16:57:21.346Z,14.66
2023-05-08T16:59:47.909Z,14.55
2023-05-08T17:02:18.742Z,14.44
2023-05-08T17:04:46.922Z,14.60
2023-05-08T17:07:17.287Z,14.39
2023-05-08T17:09:44.326Z,14.39
2023-05-08T17:12:10.914Z,14.48
2023-05-08T17:14:39.423Z,14.52
2023-05-08T17:17:06.397Z,14.29
2023-05-08T17:19:32.963Z,14.65
2023-05-08T17:21:59.924Z,14.85
2023-05-08T17:24:26.774Z,14.64
2023-05-08T17:26:53.283Z,14.73
2023-05-08T17:29:19.835Z,14.80
2023-05-08T17:31:46.363Z,14.63
2023-05-08T17:34:13.031Z,14.37
2023-05-08T17:36:39.556Z,14.43
2023-05-08T17:39:06.104Z,14.51
2023-05-08T17:41:32.582Z,14.27
2023-05-08T17:43:59.078Z,14.28
2023-05-08T17:46:25.557Z,14.30
2023-05-08T17:48:52.071Z,14.14
2023-05-08T17:51:18.653Z,14.25
2023-05-08T17:53:45.127Z,14.19
2023-05-08T17:56:11.738Z,14.34
2023-05-08T17:58:38.182Z,14.38
2023-05-08T18:01:06.159Z,14.25
2023-05-08T18:03:32.711Z,14.10
2023-05-08T18:05:59.161Z,14.01
2023-05-08T18:08:25.631Z,13.75
2023-05-08T18:10:52.066Z,13.98
2023-05-08T18:13:18.717Z,14.05
2023-05-08T18:15:45.250Z,14.13
2023-05-08T18:18:11.777Z,14.05
2023-05-08T18:20:38.422Z,13.92
2023-05-08T18:23:04.891Z,13.78
2023-05-08T18:25:31.428Z,13.66
2023-05-08T18:27:58.875Z,13.74
2023-05-08T18:30:25.416Z,13.68
2023-05-08T18:32:53.267Z,13.65
2023-05-08T18:35:21.508Z,13.65
2023-05-08T18:37:48.065Z,13.65
2023-05-08T18:40:14.817Z,13.59
2023-05-08T18:42:41.566Z,13.58
2023-05-08T18:45:08.401Z,13.62
2023-05-08T18:47:34.911Z,13.53
2023-05-08T18:50:01.406Z,13.52
2023-05-08T18:52:27.909Z,13.47
2023-05-08T18:54:54.379Z,13.39
2023-05-08T18:57:20.939Z,13.39
2023-05-08T18:59:47.412Z,13.55
2023-05-08T19:02:14.448Z,13.67
2023-05-08T19:04:40.917Z,13.61
2023-05-08T19:07:07.335Z,13.62
2023-05-08T19:09:34.042Z,13.56
2023-05-08T19:12:00.688Z,13.57
2023-05-08T19:14:27.285Z,13.73
2023-05-08T19:16:55.022Z,13.85
2023-05-08T19:19:23.493Z,13.80
2023-05-08T19:21:50.077Z,13.80
2023-05-08T19:24:20.386Z,13.68
2023-05-08T19:26:47.171Z,13.61
2023-05-08T19:29:13.615Z,13.61
2023-05-08T19:31:40.116Z,13.63
2023-05-08T19:34:06.761Z,13.61
2023-05-08T19:36:34.837Z,13.35
2023-05-08T19:39:02.578Z,13.30
2023-05-08T19:41:29.148Z,13.34
2023-05-08T19:43:55.792Z,13.52
2023-05-08T19:46:22.325Z,13.52
2023-05-08T19:48:49.049Z,13.26
2023-05-08T19:51:16.326Z,13.40
2023-05-08T19:53:42.917Z,13.32
2023-05-08T19:56:09.458Z,13.52
2023-05-08T19:58:35.919Z,13.50
2023-05-08T20:01:02.367Z,13.39
2023-05-08T20:03:29.029Z,13.49
2023-05-08T20:05:55.586Z,13.58
2023-05-08T20:08:22.066Z,13.46
2023-05-08T20:10:49.226Z,13.30
2023-05-08T20:13:16.687Z,13.27
2023-05-08T20:15:43.506Z,13.27
2023-05-08T20:18:10.051Z,13.45
2023-05-08T20:20:36.524Z,13.34
2023-05-08T20:23:03.148Z,13.34
2023-05-08T20:25:29.673Z,13.29
2023-05-08T20:27:56.200Z,13.31
2023-05-08T20:30:23.775Z,13.36
2023-05-08T20:32:50.586Z,13.34
2023-05-08T20:35:17.136Z,13.31
2023-05-08T20:37:44.333Z,13.10
2023-05-08T20:40:10.996Z,12.94
2023-05-08T20:42:37.959Z,13.05
2023-05-08T20:45:04.666Z,12.84
2023-05-08T20:47:31.231Z,12.80
2023-05-08T20:49:57.719Z,12.85
2023-05-08T20:52:24.137Z,12.97
2023-05-08T20:54:50.750Z,12.87
2023-05-08T20:57:18.472Z,12.84
2023-05-08T20:59:47.218Z,12.84
2023-05-08T21:02:13.861Z,12.68
2023-05-08T21:04:40.516Z,12.64
2023-05-08T21:07:07.218Z,12.61
2023-05-08T21:09:33.845Z,12.65
2023-05-08T21:12:00.629Z,12.61
2023-05-08T21:14:27.092Z,12.64
2023-05-08T21:16:56.861Z,12.74
2023-05-08T21:19:23.775Z,12.77
2023-05-08T21:21:50.299Z,12.75
2023-05-08T21:24:17.001Z,12.83
2023-05-08T21:26:43.501Z,12.72
2023-05-08T21:29:10.895Z,12.79
2023-05-08T21:31:37.662Z,12.71
2023-05-08T21:34:04.383Z,12.64
2023-05-08T21:36:32.168Z,12.61
2023-05-08T21:38:58.714Z,12.76
2023-05-08T21:41:25.182Z,12.68
2023-05-08T21:43:51.645Z,12.68
2023-05-08T21:46:18.177Z,12.57
2023-05-08T21:48:44.715Z,12.52
2023-05-08T21:51:11.399Z,12.39
2023-05-08T21:53:37.892Z,12.38
2023-05-08T21:56:04.487Z,12.34
2023-05-08T21:58:30.986Z,12.30
2023-05-08T22:00:58.714Z,12.28
2023-05-08T22:03:25.627Z,12.35
2023-05-08T22:05:52.608Z,12.44
2023-05-08T22:08:19.510Z,12.47
2023-05-08T22:10:46.472Z,12.34
2023-05-08T22:13:13.135Z,12.05
2023-05-08T22:15:39.623Z,12.00
2023-05-08T22:18:06.110Z,11.92
2023-05-08T22:20:33.164Z,12.13
2023-05-08T22:22:59.716Z,12.24
2023-05-08T22:25:26.761Z,12.01
2023-05-08T22:27:53.379Z,12.13
2023-05-08T22:30:19.910Z,12.09
2023-05-08T22:32:52.110Z,12.15
2023-05-08T22:35:19.490Z,12.12
2023-05-08T22:37:46.098Z,12.05
2023-05-08T22:40:12.803Z,12.04
2023-05-08T22:42:39.394Z,11.96
2023-05-08T22:45:06.161Z,11.92
2023-05-08T22:47:33.467Z,11.89
2023-05-08T22:49:59.970Z,11.86
2023-05-08T22:52:27.126Z,11.87
2023-05-08T22:54:53.724Z,11.68
2023-05-08T22:57:21.227Z,11.73
2023-05-08T22:59:47.757Z,11.78
2023-05-08T23:02:14.205Z,11.79
2023-05-08T23:04:40.683Z,11.81
2023-05-08T23:07:07.232Z,11.81
2023-05-08T23:09:33.655Z,11.55
2023-05-08T23:12:00.119Z,11.67
2023-05-08T23:14:26.591Z,11.81
2023-05-08T23:16:53.083Z,11.56
2023-05-08T23:19:19.546Z,11.56
2023-05-08T23:21:46.090Z,11.70
2023-05-08T23:24:12.602Z,11.69
2023-05-08T23:26:41.361Z,11.65
2023-05-08T23:29:08.652Z,11.79
2023-05-08T23:31:35.167Z,11.69
2023-05-08T23:34:01.591Z,11.66
2023-05-08T23:36:28.154Z,11.72
2023-05-08T23:38:54.594Z,11.77
2023-05-08T23:41:21.121Z,11.79
2023-05-08T23:43:47.595Z,11.72
2023-05-08T23:46:14.278Z,11.69
2023-05-08T23:48:40.766Z,11.69
2023-05-08T23:51:07.220Z,11.58
2023-05-08T23:53:33.745Z,11.59
2023-05-08T23:56:00.328Z,11.64
2023-05-08T23:58:26.764Z,11.59
